createdAt,value
2019-04-23T00:05:29.133Z,4.93
2019-04-23T00:08:23.227Z,7.20
2019-04-23T00:11:13.578Z,4.87
2019-04-23T00:13:58.072Z,6.80
2019-04-23T00:17:04.606Z,4.53
2019-04-23T00:20:04.566Z,4.93
2019-04-23T00:23:34.979Z,5.17
2019-04-23T00:26:10.620Z,6.00
2019-04-23T00:29:05.393Z,4.00
2019-04-23T00:31:53.344Z,6.73
2019-04-23T00:34:55.811Z,5.03
2019-04-23T00:37:35.227Z,4.30
2019-04-23T00:40:31.786Z,3.93
2019-04-23T00:46:18.714Z,4.40
2019-04-23T00:51:58.469Z,5.60
2019-04-23T01:06:19.366Z,7.13
2019-04-23T01:09:08.831Z,4.33
2019-04-23T01:11:57.887Z,7.33
2019-04-23T01:14:56.956Z,5.10
2019-04-23T01:17:49.319Z,5.40
2019-04-23T01:20:52.129Z,7.03
2019-04-23T01:23:41.870Z,5.37
2019-04-23T01:26:50.279Z,5.23
2019-04-23T01:29:42.490Z,5.53
2019-04-23T01:35:39.720Z,9.73
2019-04-23T01:38:21.547Z,5.77
2019-04-23T01:41:13.267Z,6.93
2019-04-23T01:43:55.313Z,9.93
2019-04-23T01:46:55.691Z,5.53
2019-04-23T01:49:58.215Z,6.53
2019-04-23T01:58:32.194Z,8.03
2019-04-23T02:04:36.260Z,6.60
2019-04-23T02:10:29.820Z,5.93
2019-04-23T02:13:16.632Z,7.03
2019-04-23T02:15:57.172Z,5.40
2019-04-23T02:19:03.677Z,6.60
2019-04-23T02:22:01.169Z,7.57
2019-04-23T02:24:55.835Z,6.13
2019-04-23T02:27:48.962Z,6.40
2019-04-23T02:33:35.921Z,6.87
2019-04-23T02:36:11.262Z,6.93
2019-04-23T02:39:12.581Z,7.20
2019-04-23T02:42:19.090Z,7.80
2019-04-23T02:44:56.295Z,5.77
2019-04-23T02:47:53.090Z,6.47
2019-04-23T02:56:37.468Z,5.93
2019-04-23T02:59:29.101Z,6.33
2019-04-23T03:02:24.426Z,8.47
2019-04-23T03:10:57.058Z,6.27
2019-04-23T03:13:51.024Z,6.73
2019-04-23T03:25:48.925Z,6.83
2019-04-23T03:40:13.640Z,6.93
2019-04-23T03:43:08.408Z,7.47
2019-04-23T03:46:12.232Z,8.03
2019-04-23T03:48:53.214Z,6.40
2019-04-23T03:51:35.984Z,7.40
2019-04-23T03:57:26.960Z,6.77
2019-04-23T04:00:31.642Z,10.37
2019-04-23T04:06:13.775Z,7.67
2019-04-23T04:08:56.248Z,9.33
2019-04-23T04:11:27.421Z,10.03
2019-04-23T04:17:20.014Z,10.23
2019-04-23T04:20:16.478Z,11.80
2019-04-23T04:23:29.324Z,6.50
2019-04-23T04:26:00.820Z,7.50
2019-04-23T04:28:52.829Z,7.43
2019-04-23T04:31:48.134Z,8.47
2019-04-23T04:35:00.332Z,13.07
2019-04-23T04:40:20.803Z,7.50
2019-04-23T04:43:14.027Z,6.50
2019-04-23T04:48:59.032Z,7.23
2019-04-23T04:51:51.746Z,6.43
2019-04-23T04:54:22.956Z,10.60
2019-04-23T05:03:22.704Z,12.27
2019-04-23T05:08:54.677Z,8.07
2019-04-23T05:12:01.598Z,7.07
2019-04-23T05:14:43.583Z,10.30
2019-04-23T05:17:51.925Z,8.43
2019-04-23T05:20:40.783Z,7.37
2019-04-23T05:23:42.887Z,7.70
2019-04-23T05:29:27.860Z,12.00
2019-04-23T05:32:14.890Z,9.37
2019-04-23T05:35:15.079Z,9.27
2019-04-23T05:40:59.225Z,8.20
2019-04-23T05:43:46.877Z,8.10
2019-04-23T05:49:29.311Z,8.47
2019-04-23T05:52:17.747Z,11.07
2019-04-23T05:55:10.871Z,8.97
2019-04-23T05:58:05.198Z,10.53
2019-04-23T06:01:08.684Z,7.20
2019-04-23T06:03:56.552Z,8.20
2019-04-23T06:09:37.575Z,26.00
2019-04-23T06:12:19.052Z,8.00
2019-04-23T06:18:20.072Z,7.20
2019-04-23T06:21:04.479Z,13.33
2019-04-23T06:23:53.500Z,8.30
2019-04-23T06:32:24.243Z,7.03
2019-04-23T06:35:16.604Z,8.03
2019-04-23T06:41:00.728Z,8.93
2019-04-23T06:44:06.050Z,8.63
2019-04-23T06:46:50.572Z,7.40
2019-04-23T06:52:38.766Z,6.80
2019-04-23T06:55:26.653Z,8.23
2019-04-23T06:58:23.185Z,8.27
2019-04-23T07:04:02.554Z,7.07
2019-04-23T07:06:58.226Z,11.97
2019-04-23T07:09:40.127Z,8.27
2019-04-23T07:12:38.882Z,8.33
2019-04-23T07:15:42.845Z,7.63
2019-04-23T07:18:18.250Z,6.60
2019-04-23T07:21:15.339Z,12.53
2019-04-23T07:24:05.224Z,13.83
2019-04-23T07:26:42.331Z,20.87
2019-04-23T07:29:48.584Z,8.43
2019-04-23T07:32:35.964Z,9.10
2019-04-23T07:35:25.349Z,7.97
2019-04-23T07:38:47.348Z,9.53
2019-04-23T07:41:52.934Z,8.93
2019-04-23T07:44:56.451Z,9.30
2019-04-23T07:48:12.422Z,8.97
2019-04-23T07:50:55.039Z,12.07
2019-04-23T07:53:52.037Z,9.73
2019-04-23T07:56:45.936Z,11.83
2019-04-23T07:59:37.168Z,8.90
2019-04-23T08:02:27.329Z,10.37
2019-04-23T08:05:25.154Z,7.57
2019-04-23T08:16:56.170Z,12.33
2019-04-23T08:19:56.030Z,8.47
2019-04-23T08:22:40.879Z,11.63
2019-04-23T08:25:52.416Z,9.60
2019-04-23T08:28:48.370Z,13.83
2019-04-23T08:34:32.111Z,12.63
2019-04-23T08:37:18.575Z,12.50
2019-04-23T08:40:01.515Z,8.07
2019-04-23T08:43:02.078Z,10.13
2019-04-23T08:46:13.996Z,8.80
2019-04-23T08:49:06.668Z,9.50
2019-04-23T08:57:33.713Z,10.87
2019-04-23T09:00:32.624Z,7.80
2019-04-23T09:06:10.765Z,7.97
2019-04-23T09:09:10.414Z,15.80
2019-04-23T09:11:55.957Z,12.63
2019-04-23T09:14:48.587Z,9.60
2019-04-23T09:17:44.400Z,17.50
2019-04-23T09:20:26.202Z,11.30
2019-04-23T09:23:26.353Z,9.23
2019-04-23T09:26:08.977Z,16.43
2019-04-23T09:29:10.417Z,8.43
2019-04-23T09:35:36.347Z,11.30
2019-04-23T09:38:46.717Z,8.33
2019-04-23T09:41:48.278Z,8.23
2019-04-23T09:53:48.802Z,8.80
2019-04-23T09:56:41.529Z,10.90
2019-04-23T10:02:10.387Z,10.17
2019-04-23T10:04:56.884Z,9.93
2019-04-23T10:07:47.627Z,9.63
2019-04-23T10:10:28.255Z,16.33
2019-04-23T10:13:19.950Z,13.10
2019-04-23T10:16:12.236Z,9.47
2019-04-23T10:19:01.907Z,10.17
2019-04-23T10:21:53.352Z,12.90
2019-04-23T10:24:43.611Z,10.47
2019-04-23T10:27:58.644Z,10.70
2019-04-23T10:30:46.768Z,12.37
2019-04-23T10:33:37.936Z,11.80
2019-04-23T10:36:30.052Z,12.37
2019-04-23T10:39:25.409Z,10.57
2019-04-23T10:42:12.072Z,10.67
2019-04-23T10:45:35.187Z,13.07
2019-04-23T10:49:31.824Z,17.03
2019-04-23T10:52:12.935Z,10.90
2019-04-23T10:55:00.799Z,14.63
2019-04-23T10:57:54.757Z,10.93
2019-04-23T11:00:55.736Z,10.90
2019-04-23T11:03:48.646Z,12.50
2019-04-23T11:18:12.068Z,14.13
2019-04-23T11:21:18.884Z,12.73
2019-04-23T11:24:19.025Z,10.33
2019-04-23T11:26:57.765Z,10.07
2019-04-23T11:38:44.491Z,11.03
2019-04-23T11:41:22.751Z,9.30
2019-04-23T11:47:23.217Z,14.17
2019-04-23T11:49:53.645Z,16.07
2019-04-23T11:50:45.240Z,11.40
2019-04-23T11:52:44.684Z,13.03
2019-04-23T11:55:40.798Z,17.70
2019-04-23T11:58:20.517Z,10.73
2019-04-23T12:04:50.199Z,11.17
2019-04-23T12:07:50.818Z,19.60
2019-04-23T12:11:00.494Z,12.30
2019-04-23T12:14:02.329Z,19.43
2019-04-23T12:17:09.747Z,9.80
2019-04-23T12:22:54.457Z,13.57
2019-04-23T12:25:32.878Z,16.00
2019-04-23T12:28:20.767Z,11.47
2019-04-23T12:31:17.747Z,12.63
2019-04-23T12:34:18.001Z,12.83
2019-04-23T12:37:17.733Z,11.87
2019-04-23T12:40:00.450Z,11.63
2019-04-23T12:48:42.098Z,16.23
2019-04-23T12:51:31.539Z,21.07
2019-04-23T12:54:21.630Z,12.70
2019-04-23T13:00:00.243Z,21.43
2019-04-23T13:03:02.687Z,18.13
2019-04-23T13:05:34.107Z,25.23
2019-04-23T13:11:29.846Z,16.90
2019-04-23T13:14:29.941Z,19.50
2019-04-23T13:17:22.280Z,17.83
2019-04-23T13:20:14.593Z,13.37
2019-04-23T13:23:03.192Z,20.03
2019-04-23T13:25:57.574Z,16.83
2019-04-23T13:28:52.865Z,21.43
2019-04-23T13:31:39.702Z,20.53
2019-04-23T13:34:52.078Z,19.83
2019-04-23T13:37:36.702Z,20.40
2019-04-23T13:43:24.366Z,14.80
2019-04-23T13:46:14.906Z,15.17
2019-04-23T13:48:58.343Z,15.27
2019-04-23T13:51:46.982Z,16.30
2019-04-23T13:55:04.521Z,24.97
2019-04-23T13:57:57.419Z,18.73
2019-04-23T14:00:40.282Z,19.57
2019-04-23T14:03:26.368Z,19.93
2019-04-23T14:06:23.214Z,19.43
2019-04-23T14:11:51.787Z,18.33
2019-04-23T14:14:56.386Z,19.97
2019-04-23T14:18:02.901Z,19.47
2019-04-23T14:20:34.860Z,24.60
2019-04-23T14:23:39.670Z,22.27
2019-04-23T14:26:32.241Z,22.47
2019-04-23T14:29:04.330Z,23.70
2019-04-23T14:32:10.507Z,31.87
2019-04-23T14:35:21.685Z,32.90
2019-04-23T14:38:15.791Z,29.37
2019-04-23T14:43:48.757Z,28.53
2019-04-23T14:46:42.334Z,35.67
2019-04-23T14:49:36.124Z,32.57
2019-04-23T14:52:32.523Z,29.93
2019-04-23T14:58:25.457Z,33.40
2019-04-23T15:04:05.681Z,24.20
2019-04-23T15:07:11.350Z,26.00
2019-04-23T15:09:57.527Z,27.73
2019-04-23T15:12:47.907Z,22.37
2019-04-23T15:15:34.369Z,24.43
2019-04-23T15:18:46.774Z,23.47
2019-04-23T15:21:47.346Z,18.47
2019-04-23T15:24:25.244Z,18.80
2019-04-23T15:29:56.445Z,22.80
2019-04-23T15:41:38.180Z,14.60
2019-04-23T15:47:19.325Z,14.37
2019-04-23T15:50:15.710Z,17.67
2019-04-23T15:52:56.309Z,13.60
2019-04-23T15:55:49.142Z,18.80
2019-04-23T15:59:05.042Z,13.03
2019-04-23T16:01:37.609Z,11.93
2019-04-23T16:04:08.799Z,12.13
2019-04-23T16:06:59.523Z,12.53
2019-04-23T16:13:13.319Z,12.00
2019-04-23T16:16:07.717Z,11.77
2019-04-23T16:19:20.564Z,11.60
2019-04-23T16:22:27.826Z,10.90
2019-04-23T16:25:06.793Z,11.27
2019-04-23T16:28:00.045Z,10.83
2019-04-23T16:31:00.833Z,12.23
2019-04-23T16:34:05.088Z,10.33
2019-04-23T16:36:48.625Z,12.00
2019-04-23T16:39:39.097Z,11.50
2019-04-23T16:42:40.051Z,11.47
2019-04-23T16:48:36.543Z,9.50
2019-04-23T16:51:18.132Z,11.13
2019-04-23T16:54:01.799Z,12.50
2019-04-23T17:00:02.535Z,9.07
2019-04-23T17:02:48.018Z,8.83
2019-04-23T17:05:39.602Z,9.50
2019-04-23T17:11:24.970Z,9.00
2019-04-23T17:14:16.363Z,7.70
2019-04-23T17:16:59.974Z,9.70
2019-04-23T17:20:00.946Z,8.80
2019-04-23T17:22:56.611Z,8.53
2019-04-23T17:25:42.119Z,8.80
2019-04-23T17:28:56.132Z,9.80
2019-04-23T17:34:24.430Z,8.67
2019-04-23T17:37:19.992Z,8.33
2019-04-23T17:40:13.589Z,10.50
2019-04-23T17:43:08.975Z,14.90
2019-04-23T17:45:54.404Z,12.57
2019-04-23T17:49:01.130Z,9.70
2019-04-23T17:51:42.240Z,11.70
2019-04-23T18:00:26.462Z,13.07
2019-04-23T18:03:04.638Z,10.30
2019-04-23T18:06:14.300Z,9.60
2019-04-23T18:09:00.760Z,8.77
2019-04-23T18:14:34.667Z,8.03
2019-04-23T18:20:36.920Z,9.27
2019-04-23T18:23:37.942Z,16.00
2019-04-23T18:26:39.973Z,8.37
2019-04-23T18:32:43.201Z,9.20
2019-04-23T18:35:29.959Z,13.77
2019-04-23T18:41:18.053Z,10.67
2019-04-23T18:44:16.166Z,8.03
2019-04-23T18:47:08.988Z,9.33
2019-04-23T18:49:55.079Z,13.93
2019-04-23T18:53:02.823Z,8.37
2019-04-23T18:56:02.439Z,9.77
2019-04-23T18:58:34.698Z,9.20
2019-04-23T19:01:47.857Z,8.93
2019-04-23T19:04:41.629Z,9.63
2019-04-23T19:07:57.139Z,10.93
2019-04-23T19:11:09.115Z,10.33
2019-04-23T19:13:47.832Z,12.27
2019-04-23T19:17:09.081Z,8.60
2019-04-23T19:19:44.214Z,9.70
2019-04-23T19:25:23.299Z,9.87
2019-04-23T19:28:33.133Z,9.73
2019-04-23T19:31:16.205Z,9.73
2019-04-23T19:39:58.523Z,10.33
2019-04-23T19:42:49.016Z,10.10
2019-04-23T19:45:38.787Z,9.88
2019-04-23T19:48:36.289Z,10.53
2019-04-23T19:54:20.146Z,11.87
2019-04-23T19:57:09.311Z,11.77
2019-04-23T20:03:01.618Z,11.17
2019-04-23T20:05:41.950Z,12.43
2019-04-23T20:08:49.271Z,10.40
2019-04-23T20:11:30.224Z,10.70
2019-04-23T20:14:14.201Z,14.27
2019-04-23T20:17:23.207Z,10.90
2019-04-23T20:20:00.828Z,11.20
2019-04-23T20:29:10.878Z,17.80
2019-04-23T20:34:49.608Z,14.47
2019-04-23T20:37:43.308Z,13.33
2019-04-23T20:40:26.487Z,12.30
2019-04-23T20:43:41.118Z,11.40
2019-04-23T20:48:56.947Z,10.37
2019-04-23T20:51:58.190Z,9.40
2019-04-23T20:54:51.027Z,14.47
2019-04-23T20:57:48.493Z,13.83
2019-04-23T21:01:09.597Z,16.43
2019-04-23T21:09:51.271Z,12.63
2019-04-23T21:12:51.062Z,11.77
2019-04-23T21:18:18.976Z,8.80
2019-04-23T21:21:00.687Z,11.63
2019-04-23T21:23:53.680Z,17.87
2019-04-23T21:26:50.305Z,11.30
2019-04-23T21:29:46.813Z,11.93
2019-04-23T21:32:41.015Z,13.37
2019-04-23T21:35:29.320Z,12.43
2019-04-23T21:38:30.269Z,7.67
2019-04-23T21:41:30.333Z,7.33
2019-04-23T21:44:13.448Z,16.43
2019-04-23T21:47:14.568Z,14.97
2019-04-23T21:50:04.589Z,12.30
2019-04-23T21:52:48.983Z,13.70
2019-04-23T21:55:46.951Z,20.47
2019-04-23T21:58:35.063Z,17.23
2019-04-23T22:07:07.094Z,18.20
2019-04-23T22:10:07.722Z,13.93
2019-04-23T22:13:02.621Z,11.63
2019-04-23T22:16:42.382Z,9.40
2019-04-23T22:18:56.095Z,11.23
2019-04-23T22:24:34.875Z,12.27
2019-04-23T22:27:10.198Z,10.33
2019-04-23T22:30:22.416Z,18.50
2019-04-23T22:33:07.593Z,12.00
2019-04-23T22:35:55.841Z,12.37
2019-04-23T22:38:43.503Z,12.37
2019-04-23T22:41:37.320Z,15.20
2019-04-23T22:44:56.130Z,11.97
2019-04-23T22:47:07.254Z,7.37
2019-04-23T22:53:00.341Z,12.47
2019-04-23T22:55:57.248Z,15.27
2019-04-23T22:58:51.534Z,13.70
2019-04-23T23:04:33.519Z,19.90
2019-04-23T23:07:21.929Z,13.77
2019-04-23T23:13:03.561Z,13.97
2019-04-23T23:16:02.047Z,16.73
2019-04-23T23:18:55.177Z,13.13
2019-04-23T23:24:28.656Z,13.33
2019-04-23T23:27:25.170Z,9.70
2019-04-23T23:30:08.843Z,19.63
2019-04-23T23:36:03.513Z,8.83
2019-04-23T23:39:05.560Z,11.57
2019-04-23T23:41:43.907Z,9.23
2019-04-23T23:47:18.075Z,11.80
2019-04-23T23:50:44.955Z,24.40
2019-04-23T23:53:15.613Z,19.17
2019-04-23T23:56:11.177Z,12.03
2019-04-23T23:58:57.794Z,14.50
